createdAt,value
2017-06-27T00:00:32.969Z,26.58
2017-06-27T00:01:13.462Z,26.58
2017-06-27T00:01:53.981Z,26.66
2017-06-27T00:02:34.494Z,26.55
2017-06-27T00:03:15.017Z,26.55
2017-06-27T00:03:55.495Z,26.54
2017-06-27T00:04:36.020Z,26.57
2017-06-27T00:05:16.517Z,26.58
2017-06-27T00:05:57.054Z,26.58
2017-06-27T00:06:37.508Z,26.57
2017-06-27T00:07:18.087Z,26.54
2017-06-27T00:07:58.537Z,26.52
2017-06-27T00:08:39.126Z,26.54
2017-06-27T00:09:19.657Z,26.6
2017-06-27T00:10:00.117Z,26.58
2017-06-27T00:10:40.637Z,26.54
2017-06-27T00:11:21.132Z,26.54
2017-06-27T00:12:01.655Z,26.51
2017-06-27T00:12:42.166Z,26.6
2017-06-27T00:13:22.702Z,26.55
2017-06-27T00:14:03.803Z,26.6
2017-06-27T00:14:43.721Z,26.52
2017-06-27T00:15:24.279Z,26.62
2017-06-27T00:16:04.763Z,26.55
2017-06-27T00:16:45.271Z,26.58
2017-06-27T00:17:25.742Z,26.52
2017-06-27T00:18:06.318Z,26.55
2017-06-27T00:18:46.767Z,26.6
2017-06-27T00:19:27.280Z,26.58
2017-06-27T00:20:07.787Z,26.55
2017-06-27T00:20:48.273Z,26.58
2017-06-27T00:21:28.793Z,26.6
2017-06-27T00:22:09.324Z,26.55
2017-06-27T00:22:49.812Z,26.4
2017-06-27T00:23:30.306Z,26.4
2017-06-27T00:24:10.863Z,26.35
2017-06-27T00:24:51.310Z,26.32
2017-06-27T00:25:31.840Z,26.4
2017-06-27T00:26:12.352Z,26.32
2017-06-27T00:26:52.844Z,26.33
2017-06-27T00:27:33.426Z,26.32
2017-06-27T00:28:13.835Z,26.13
2017-06-27T00:28:54.322Z,26.32
2017-06-27T00:29:34.841Z,26.18
2017-06-27T00:30:15.343Z,26.32
2017-06-27T00:30:55.831Z,26.18
2017-06-27T00:31:36.372Z,26.28
2017-06-27T00:32:16.838Z,26.26
2017-06-27T00:32:57.326Z,26.23
2017-06-27T00:33:37.831Z,26.33
2017-06-27T00:34:18.419Z,26.33
2017-06-27T00:34:58.887Z,26.35
2017-06-27T00:35:39.377Z,26.37
2017-06-27T00:36:19.880Z,26.39
2017-06-27T00:37:00.405Z,26.44
2017-06-27T00:37:40.873Z,26.39
2017-06-27T00:38:21.329Z,26.43
2017-06-27T00:39:01.858Z,26.4
2017-06-27T00:39:42.328Z,26.4
2017-06-27T00:40:22.876Z,26.33
2017-06-27T00:41:03.374Z,26.29
2017-06-27T00:41:43.903Z,26.26
2017-06-27T00:42:24.423Z,26.3
2017-06-27T00:43:04.945Z,26.25
2017-06-27T00:43:45.397Z,26.25
2017-06-27T00:44:25.887Z,26.15
2017-06-27T00:45:06.404Z,26.07
2017-06-27T00:45:46.931Z,26.17
2017-06-27T00:46:27.439Z,26.06
2017-06-27T00:47:07.921Z,26.12
2017-06-27T00:47:48.362Z,26.15
2017-06-27T00:48:28.897Z,26.09
2017-06-27T00:49:09.428Z,26.12
2017-06-27T00:49:49.966Z,26.1
2017-06-27T00:50:30.524Z,26.25
2017-06-27T00:51:11.028Z,26.07
2017-06-27T00:51:51.491Z,26.18
2017-06-27T00:52:31.992Z,26.17
2017-06-27T00:53:12.475Z,26.12
2017-06-27T00:53:53.026Z,26.09
2017-06-27T00:54:33.538Z,26.32
2017-06-27T00:55:14.005Z,26.12
2017-06-27T00:55:54.498Z,26.17
2017-06-27T00:56:35.114Z,26.23
2017-06-27T00:57:15.629Z,26.29
2017-06-27T00:57:56.114Z,26.32
2017-06-27T00:58:36.618Z,26.33
2017-06-27T00:59:17.091Z,26.25
2017-06-27T00:59:57.573Z,26.07
2017-06-27T01:00:38.096Z,26.05
2017-06-27T01:01:18.624Z,25.99
2017-06-27T01:01:59.125Z,25.98
2017-06-27T01:02:39.576Z,25.87
2017-06-27T01:03:20.072Z,25.9
2017-06-27T01:04:00.563Z,26.06
2017-06-27T01:04:41.081Z,26.01
2017-06-27T01:05:21.587Z,25.88
2017-06-27T01:06:02.103Z,25.88
2017-06-27T01:06:42.571Z,25.98
2017-06-27T01:07:23.095Z,25.95
2017-06-27T01:08:03.633Z,25.94
2017-06-27T01:08:44.036Z,25.99
2017-06-27T01:09:24.542Z,26.05
2017-06-27T01:10:05.097Z,26.02
2017-06-27T01:10:45.556Z,25.91
2017-06-27T01:11:26.077Z,25.94
2017-06-27T01:12:06.579Z,26.01
2017-06-27T01:12:47.095Z,25.94
2017-06-27T01:13:27.560Z,25.95
2017-06-27T01:14:08.027Z,25.91
2017-06-27T01:14:48.556Z,25.91
2017-06-27T01:15:29.090Z,25.94
2017-06-27T01:16:09.564Z,25.91
2017-06-27T01:16:50.130Z,25.88
2017-06-27T01:17:30.568Z,25.91
2017-06-27T01:18:11.103Z,26.05
2017-06-27T01:18:51.606Z,25.97
2017-06-27T01:19:32.159Z,25.98
2017-06-27T01:20:12.678Z,25.99
2017-06-27T01:20:53.177Z,26.06
2017-06-27T01:21:33.671Z,25.97
2017-06-27T01:22:14.222Z,25.91
2017-06-27T01:22:54.695Z,25.85
2017-06-27T01:23:35.240Z,25.87
2017-06-27T01:24:15.700Z,25.88
2017-06-27T01:24:56.154Z,25.73
2017-06-27T01:25:36.693Z,25.94
2017-06-27T01:26:17.212Z,25.92
2017-06-27T01:26:57.720Z,25.91
2017-06-27T01:27:38.203Z,26.05
2017-06-27T01:28:18.673Z,26.05
2017-06-27T01:28:59.213Z,26.05
2017-06-27T01:29:39.750Z,26.01
2017-06-27T01:30:20.258Z,26.13
2017-06-27T01:31:00.743Z,26.06
2017-06-27T01:31:41.293Z,26.06
2017-06-27T01:32:21.823Z,26.02
2017-06-27T01:33:02.364Z,26.01
2017-06-27T01:33:42.810Z,26.02
2017-06-27T01:34:23.321Z,25.91
2017-06-27T01:35:03.846Z,25.87
2017-06-27T01:35:44.346Z,25.83
2017-06-27T01:36:24.910Z,25.91
2017-06-27T01:37:05.408Z,25.77
2017-06-27T01:37:45.899Z,25.88
2017-06-27T01:38:26.403Z,25.91
2017-06-27T01:39:06.969Z,25.9
2017-06-27T01:39:47.489Z,25.77
2017-06-27T01:40:27.964Z,25.8
2017-06-27T01:41:08.497Z,25.76
2017-06-27T01:41:48.995Z,25.91
2017-06-27T01:42:29.519Z,25.91
2017-06-27T01:43:10.032Z,25.76
2017-06-27T01:43:50.490Z,25.77
2017-06-27T01:44:31.032Z,25.72
2017-06-27T01:45:11.474Z,25.7
2017-06-27T01:45:52.036Z,25.77
2017-06-27T01:46:32.525Z,25.72
2017-06-27T01:47:13.103Z,25.73
2017-06-27T01:47:53.612Z,25.62
2017-06-27T01:48:34.102Z,25.6
2017-06-27T01:49:14.649Z,25.64
2017-06-27T01:49:55.136Z,25.7
2017-06-27T01:50:35.599Z,25.8
2017-06-27T01:51:16.117Z,25.77
2017-06-27T01:51:56.600Z,25.76
2017-06-27T01:52:37.114Z,25.73
2017-06-27T01:53:17.578Z,25.73
2017-06-27T01:53:58.083Z,25.69
2017-06-27T01:54:38.548Z,25.69
2017-06-27T01:55:19.064Z,25.64
2017-06-27T01:55:59.540Z,25.62
2017-06-27T01:56:40.095Z,25.65
2017-06-27T01:57:20.549Z,25.54
2017-06-27T01:58:01.040Z,25.47
2017-06-27T01:58:41.570Z,25.43
2017-06-27T01:59:22.122Z,25.36
2017-06-27T02:00:02.585Z,25.38
2017-06-27T02:00:43.199Z,25.32
2017-06-27T02:01:23.648Z,25.3
2017-06-27T02:02:04.229Z,25.46
2017-06-27T02:02:44.697Z,25.46
2017-06-27T02:03:25.217Z,25.5
2017-06-27T02:04:05.685Z,25.4
2017-06-27T02:04:46.232Z,25.28
2017-06-27T02:05:26.718Z,25.35
2017-06-27T02:06:07.249Z,25.33
2017-06-27T02:06:47.772Z,25.36
2017-06-27T02:07:28.212Z,25.33
2017-06-27T02:08:08.751Z,25.39
2017-06-27T02:08:49.249Z,25.2
2017-06-27T02:09:29.860Z,25.32
2017-06-27T02:10:10.313Z,25.24
2017-06-27T02:10:50.847Z,25.28
2017-06-27T02:11:31.353Z,25.3
2017-06-27T02:12:11.824Z,25.13
2017-06-27T02:12:52.263Z,25.14
2017-06-27T02:13:32.817Z,25.23
2017-06-27T02:14:13.366Z,25.15
2017-06-27T02:14:53.816Z,25.13
2017-06-27T02:15:34.317Z,25.14
2017-06-27T02:16:14.808Z,25.15
2017-06-27T02:16:55.321Z,25.15
2017-06-27T02:17:35.851Z,25.02
2017-06-27T02:18:16.327Z,25
2017-06-27T02:18:56.833Z,25.03
2017-06-27T02:19:37.334Z,25.1
2017-06-27T02:20:17.853Z,25.15
2017-06-27T02:20:58.372Z,25.27
2017-06-27T02:21:38.849Z,25.27
2017-06-27T02:22:19.400Z,25.2
2017-06-27T02:22:59.852Z,25.15
2017-06-27T02:23:40.367Z,25.13
2017-06-27T02:24:20.945Z,25.13
2017-06-27T02:25:01.415Z,25.1
2017-06-27T02:25:41.938Z,25.1
2017-06-27T02:26:22.535Z,25.14
2017-06-27T02:27:02.994Z,25.09
2017-06-27T02:27:43.526Z,25.2
2017-06-27T02:28:24.000Z,25.18
2017-06-27T02:29:04.574Z,25.21
2017-06-27T02:29:45.076Z,25.25
2017-06-27T02:30:25.542Z,25.32
2017-06-27T02:31:06.040Z,25.25
2017-06-27T02:31:46.536Z,25.24
2017-06-27T02:32:27.077Z,25.27
2017-06-27T02:33:07.557Z,25.18
2017-06-27T02:33:48.054Z,25.2
2017-06-27T02:34:28.499Z,25.32
2017-06-27T02:35:09.040Z,25.3
2017-06-27T02:35:49.553Z,25.42
2017-06-27T02:36:30.078Z,25.36
2017-06-27T02:37:10.565Z,25.35
2017-06-27T02:37:51.070Z,25.35
2017-06-27T02:38:31.599Z,25.38
2017-06-27T02:39:12.090Z,25.39
2017-06-27T02:39:52.600Z,25.39
2017-06-27T02:40:33.077Z,25.4
2017-06-27T02:41:13.616Z,25.27
2017-06-27T02:41:54.108Z,25.35
2017-06-27T02:42:34.549Z,25.18
2017-06-27T02:43:15.044Z,25.1
2017-06-27T02:43:55.534Z,25.13
2017-06-27T02:44:36.020Z,25.14
2017-06-27T02:45:16.543Z,25.14
2017-06-27T02:45:57.015Z,25.14
2017-06-27T02:46:37.495Z,24.96
2017-06-27T02:47:17.991Z,25.09
2017-06-27T02:47:58.486Z,25.02
2017-06-27T02:48:38.991Z,25.02
2017-06-27T02:49:19.568Z,24.98
2017-06-27T02:50:00.063Z,24.98
2017-06-27T02:50:40.599Z,24.96
2017-06-27T02:51:21.109Z,25.03
2017-06-27T02:52:01.602Z,25.02
2017-06-27T02:52:42.091Z,25.06
2017-06-27T02:53:22.636Z,25.08
2017-06-27T02:54:03.114Z,25.14
2017-06-27T02:54:43.601Z,25.06
2017-06-27T02:55:24.140Z,25.14
2017-06-27T02:56:04.585Z,25.1
2017-06-27T02:56:45.072Z,25.03
2017-06-27T02:57:25.597Z,25.02
2017-06-27T02:58:06.150Z,25
2017-06-27T02:58:46.647Z,25.02
2017-06-27T02:59:27.172Z,25.08
2017-06-27T03:00:07.665Z,25.05
2017-06-27T03:00:48.211Z,25.02
2017-06-27T03:01:28.695Z,25.05
2017-06-27T03:02:09.186Z,24.99
2017-06-27T03:02:49.708Z,24.99
2017-06-27T03:03:30.227Z,25.02
2017-06-27T03:04:10.718Z,25.06
2017-06-27T03:04:51.201Z,25.1
2017-06-27T03:05:31.662Z,25.14
2017-06-27T03:06:12.181Z,25.14
2017-06-27T03:06:52.701Z,25.09
2017-06-27T03:07:33.236Z,25.06
2017-06-27T03:08:13.706Z,25.09
2017-06-27T03:08:54.255Z,25.13
2017-06-27T03:09:34.705Z,25.09
2017-06-27T03:10:15.212Z,25.08
2017-06-27T03:10:55.692Z,25.09
2017-06-27T03:11:36.214Z,25.03
2017-06-27T03:12:16.705Z,25.03
2017-06-27T03:12:57.201Z,24.99
2017-06-27T03:13:37.728Z,25
2017-06-27T03:14:18.223Z,24.96
2017-06-27T03:14:58.668Z,24.95
2017-06-27T03:15:39.169Z,25.03
2017-06-27T03:16:19.702Z,25.1
2017-06-27T03:17:00.205Z,25.09
2017-06-27T03:17:40.720Z,25.09
2017-06-27T03:18:21.252Z,25.1
2017-06-27T03:19:01.743Z,25.13
2017-06-27T03:19:42.298Z,25.1
2017-06-27T03:20:22.786Z,25.14
2017-06-27T03:21:03.279Z,25.2
2017-06-27T03:21:43.814Z,25.15
2017-06-27T03:22:24.284Z,25.09
2017-06-27T03:23:04.977Z,25.09
2017-06-27T03:23:45.439Z,25.1
2017-06-27T03:24:25.934Z,25.2
2017-06-27T03:25:06.452Z,25.1
2017-06-27T03:25:46.912Z,25.13
2017-06-27T03:26:27.414Z,25.05
2017-06-27T03:27:07.943Z,25.1
2017-06-27T03:27:48.439Z,25.15
2017-06-27T03:28:28.944Z,25.14
2017-06-27T03:29:09.444Z,24.98
2017-06-27T03:29:49.957Z,25.09
2017-06-27T03:30:30.457Z,25.02
2017-06-27T03:31:10.988Z,25.09
2017-06-27T03:31:51.488Z,25.05
2017-06-27T03:32:31.999Z,25.08
2017-06-27T03:33:12.504Z,25.1
2017-06-27T03:33:53.011Z,24.99
2017-06-27T03:34:33.506Z,24.91
2017-06-27T03:35:14.012Z,24.91
2017-06-27T03:35:54.541Z,24.88
2017-06-27T03:36:35.030Z,24.87
2017-06-27T03:37:15.537Z,24.93
2017-06-27T03:37:56.065Z,24.9
2017-06-27T03:38:36.549Z,24.9
2017-06-27T03:39:17.053Z,24.95
2017-06-27T03:39:57.567Z,24.98
2017-06-27T03:40:38.072Z,25.03
2017-06-27T03:41:18.581Z,25
2017-06-27T03:41:59.085Z,25.06
2017-06-27T03:42:39.598Z,25.02
2017-06-27T03:43:20.151Z,25.05
2017-06-27T03:44:00.696Z,25.05
2017-06-27T03:44:41.143Z,24.99
2017-06-27T03:45:21.625Z,24.99
2017-06-27T03:46:02.302Z,25.05
2017-06-27T03:46:42.819Z,24.95
2017-06-27T03:47:23.284Z,24.93
2017-06-27T03:48:03.809Z,24.99
2017-06-27T03:48:44.261Z,25
2017-06-27T03:49:24.789Z,24.99
2017-06-27T03:50:05.343Z,24.88
2017-06-27T03:50:45.866Z,24.95
2017-06-27T03:51:26.345Z,24.85
2017-06-27T03:52:06.850Z,24.91
2017-06-27T03:52:47.307Z,24.81
2017-06-27T03:53:27.847Z,24.83
2017-06-27T03:54:08.369Z,24.8
2017-06-27T03:54:48.873Z,24.78
2017-06-27T03:55:29.434Z,24.83
2017-06-27T03:56:09.951Z,24.73
2017-06-27T03:56:50.508Z,24.69
2017-06-27T03:57:32.654Z,24.84
2017-06-27T03:58:13.166Z,24.88
2017-06-27T03:58:53.694Z,24.93
2017-06-27T03:59:34.190Z,24.95
2017-06-27T04:00:14.664Z,24.96
2017-06-27T04:00:55.187Z,24.93
2017-06-27T04:01:35.678Z,24.91
2017-06-27T04:02:16.214Z,24.96
2017-06-27T04:02:56.678Z,24.93
2017-06-27T04:03:37.185Z,24.9
2017-06-27T04:04:17.669Z,24.93
2017-06-27T04:04:58.146Z,24.91
2017-06-27T04:05:38.639Z,24.93
2017-06-27T04:06:19.167Z,24.85
2017-06-27T04:06:59.647Z,24.91
2017-06-27T04:07:40.126Z,25
2017-06-27T04:08:20.628Z,25
2017-06-27T04:09:01.151Z,24.9
2017-06-27T04:09:41.709Z,25
2017-06-27T04:10:22.226Z,25
2017-06-27T04:11:02.760Z,24.99
2017-06-27T04:11:43.287Z,25.05
2017-06-27T04:12:23.792Z,25.13
2017-06-27T04:13:04.270Z,25.13
2017-06-27T04:13:44.776Z,25.1
2017-06-27T04:14:25.260Z,25.09
2017-06-27T04:15:05.797Z,25.1
2017-06-27T04:15:46.260Z,25.05
2017-06-27T04:16:26.742Z,25.13
2017-06-27T04:17:07.301Z,25.09
2017-06-27T04:17:47.759Z,25.09
2017-06-27T04:18:28.268Z,25.13
2017-06-27T04:19:08.853Z,25.09
2017-06-27T04:19:49.327Z,25.21
2017-06-27T04:20:29.877Z,25.15
2017-06-27T04:21:10.345Z,25.15
2017-06-27T04:21:50.837Z,25.05
2017-06-27T04:22:31.372Z,25.06
2017-06-27T04:23:11.886Z,25.06
2017-06-27T04:23:52.430Z,25.17
2017-06-27T04:24:32.992Z,25.24
2017-06-27T04:25:13.444Z,25.33
2017-06-27T04:25:53.919Z,25.28
2017-06-27T04:26:34.453Z,25.42
2017-06-27T04:27:14.979Z,25.27
2017-06-27T04:27:55.476Z,25.4
2017-06-27T04:28:36.030Z,25.33
2017-06-27T04:29:16.487Z,25.38
2017-06-27T04:29:57.014Z,25.38
2017-06-27T04:30:37.541Z,25.38
2017-06-27T04:31:18.047Z,25.45
2017-06-27T04:31:58.522Z,25.52
2017-06-27T04:32:39.778Z,25.42
2017-06-27T04:33:20.000Z,25.52
2017-06-27T04:34:00.462Z,25.46
2017-06-27T04:34:40.995Z,25.54
2017-06-27T04:35:21.449Z,25.54
2017-06-27T04:36:02.015Z,25.5
2017-06-27T04:36:42.531Z,25.5
2017-06-27T04:37:23.066Z,25.5
2017-06-27T04:38:03.544Z,25.52
2017-06-27T04:38:44.119Z,25.55
2017-06-27T04:39:24.714Z,25.18
2017-06-27T04:40:06.854Z,25.14
2017-06-27T04:40:47.186Z,25.06
2017-06-27T04:41:27.901Z,25.03
2017-06-27T04:42:08.410Z,25.08
2017-06-27T04:42:48.904Z,25.18
2017-06-27T04:43:29.473Z,25.2
2017-06-27T04:44:09.959Z,25.14
2017-06-27T04:44:50.489Z,24.98
2017-06-27T04:45:31.055Z,25.14
2017-06-27T04:46:11.471Z,25.13
2017-06-27T04:46:51.986Z,25.28
2017-06-27T04:47:32.547Z,25.42
2017-06-27T04:48:13.030Z,25.3
2017-06-27T04:48:53.519Z,25.35
2017-06-27T04:49:34.307Z,25.36
2017-06-27T04:50:14.882Z,25.4
2017-06-27T04:50:55.340Z,25.39
2017-06-27T04:51:35.806Z,25.47
2017-06-27T04:52:16.299Z,25.47
2017-06-27T04:52:56.791Z,25.39
2017-06-27T04:53:37.346Z,25.35
2017-06-27T04:54:17.847Z,25.36
2017-06-27T04:54:58.408Z,25.4
2017-06-27T04:55:38.854Z,25.28
2017-06-27T04:56:19.352Z,25.23
2017-06-27T04:56:59.808Z,25.24
2017-06-27T04:57:40.325Z,25.33
2017-06-27T04:58:20.885Z,25.3
2017-06-27T04:59:01.369Z,25.27
2017-06-27T04:59:41.908Z,25.21
2017-06-27T05:00:22.374Z,25.33
2017-06-27T05:01:02.871Z,25.32
2017-06-27T05:01:43.367Z,25.36
2017-06-27T05:02:23.892Z,25.42
2017-06-27T05:03:04.548Z,25.42
2017-06-27T05:03:45.068Z,25.4
2017-06-27T05:04:25.496Z,25.43
2017-06-27T05:05:06.059Z,25.46
2017-06-27T05:05:46.554Z,25.39
2017-06-27T05:06:27.102Z,25.4
2017-06-27T05:07:07.653Z,25.51
2017-06-27T05:07:48.102Z,25.45
2017-06-27T05:08:28.618Z,25.6
2017-06-27T05:09:09.190Z,25.51
2017-06-27T05:09:49.658Z,25.47
2017-06-27T05:10:30.202Z,25.51
2017-06-27T05:11:10.758Z,25.57
2017-06-27T05:11:51.289Z,25.54
2017-06-27T05:12:35.659Z,25.6
2017-06-27T05:13:17.037Z,25.55
2017-06-27T05:13:57.563Z,25.55
2017-06-27T05:14:38.057Z,25.62
2017-06-27T05:15:18.592Z,25.64
2017-06-27T05:15:59.098Z,25.54
2017-06-27T05:16:39.628Z,25.46
2017-06-27T05:17:20.140Z,25.38
2017-06-27T05:18:00.742Z,25.4
2017-06-27T05:18:41.164Z,25.43
2017-06-27T05:19:21.677Z,25.46
2017-06-27T05:20:02.225Z,25.46
2017-06-27T05:20:42.755Z,25.47
2017-06-27T05:21:23.271Z,25.55
2017-06-27T05:22:03.834Z,25.54
2017-06-27T05:22:44.924Z,25.62
2017-06-27T05:23:25.125Z,25.65
2017-06-27T05:24:05.718Z,25.7
2017-06-27T05:24:46.189Z,25.73
2017-06-27T05:25:26.825Z,25.76
2017-06-27T05:26:07.189Z,25.67
2017-06-27T05:26:47.898Z,25.65
2017-06-27T05:27:28.461Z,25.72
2017-06-27T05:28:08.959Z,25.75
2017-06-27T05:28:49.787Z,25.79
2017-06-27T05:29:30.379Z,25.72
2017-06-27T05:30:11.138Z,25.76
2017-06-27T05:30:51.629Z,25.79
2017-06-27T05:31:32.291Z,25.77
2017-06-27T05:33:09.686Z,25.75
2017-06-27T05:33:50.241Z,25.8
2017-06-27T05:34:30.779Z,25.75
2017-06-27T05:35:11.298Z,25.8
2017-06-27T05:35:51.791Z,25.79
2017-06-27T05:36:32.341Z,25.77
2017-06-27T05:37:12.869Z,25.77
2017-06-27T05:37:53.456Z,25.82
2017-06-27T05:38:34.874Z,25.7
2017-06-27T05:39:15.375Z,25.9
2017-06-27T05:39:56.046Z,25.76
2017-06-27T05:40:36.538Z,25.92
2017-06-27T05:42:52.747Z,25.88
2017-06-27T05:43:33.288Z,25.79
2017-06-27T05:44:13.775Z,25.79
2017-06-27T05:44:54.336Z,25.76
2017-06-27T05:45:34.850Z,25.8
2017-06-27T05:46:15.361Z,25.77
2017-06-27T05:46:55.861Z,25.76
2017-06-27T05:47:36.381Z,25.77
2017-06-27T05:48:16.859Z,25.76
2017-06-27T05:48:57.385Z,25.75
2017-06-27T05:49:37.897Z,25.76
2017-06-27T05:50:18.420Z,25.8
2017-06-27T05:50:58.964Z,25.82
2017-06-27T05:51:39.493Z,25.67
2017-06-27T05:52:19.978Z,25.69
2017-06-27T05:53:00.542Z,25.77
2017-06-27T05:53:41.052Z,25.8
2017-06-27T05:54:21.558Z,25.9
2017-06-27T05:55:02.125Z,25.92
2017-06-27T05:55:42.596Z,25.88
2017-06-27T05:56:23.099Z,25.88
2017-06-27T05:57:03.635Z,25.92
2017-06-27T05:57:44.117Z,25.91
2017-06-27T05:58:24.595Z,25.97
2017-06-27T05:59:05.140Z,25.87
2017-06-27T05:59:45.616Z,25.88
2017-06-27T06:00:26.137Z,25.98
2017-06-27T06:01:06.633Z,25.9
2017-06-27T06:01:47.153Z,25.85
2017-06-27T06:02:27.676Z,25.85
2017-06-27T06:03:08.180Z,25.82
2017-06-27T06:03:48.710Z,25.76
2017-06-27T06:04:29.281Z,25.7
2017-06-27T06:05:09.771Z,25.55
2017-06-27T06:05:50.327Z,25.67
2017-06-27T06:06:30.815Z,25.77
2017-06-27T06:07:11.368Z,25.75
2017-06-27T06:07:51.833Z,25.97
2017-06-27T06:08:32.356Z,26.01
2017-06-27T06:09:12.942Z,26.02
2017-06-27T06:09:53.315Z,26.06
2017-06-27T06:10:33.888Z,26.12
2017-06-27T06:11:14.469Z,26.05
2017-06-27T06:11:54.981Z,25.92
2017-06-27T06:12:35.480Z,25.95
2017-06-27T06:13:16.032Z,26.06
2017-06-27T06:13:56.561Z,26.17
2017-06-27T06:14:37.040Z,25.88
2017-06-27T06:15:17.629Z,25.77
2017-06-27T06:15:58.134Z,25.77
2017-06-27T06:16:38.637Z,25.73
2017-06-27T06:17:19.124Z,25.92
2017-06-27T06:17:59.637Z,26.1
2017-06-27T06:18:40.177Z,26.26
2017-06-27T06:19:20.638Z,26.32
2017-06-27T06:20:01.189Z,26.26
2017-06-27T06:20:41.637Z,26.37
2017-06-27T06:21:22.131Z,26.32
2017-06-27T06:22:02.634Z,26.47
2017-06-27T06:22:43.167Z,26.55
2017-06-27T06:23:23.686Z,26.58
2017-06-27T06:24:04.287Z,26.55
2017-06-27T06:24:44.811Z,26.63
2017-06-27T06:25:25.326Z,26.62
2017-06-27T06:26:05.812Z,26.7
2017-06-27T06:26:46.327Z,26.69
2017-06-27T06:27:26.955Z,26.82
2017-06-27T06:28:07.473Z,26.77
2017-06-27T06:28:47.920Z,26.8
2017-06-27T06:29:28.441Z,26.75
2017-06-27T06:30:08.931Z,26.81
2017-06-27T06:30:49.446Z,26.87
2017-06-27T06:31:29.921Z,26.84
2017-06-27T06:32:10.407Z,26.82
2017-06-27T06:32:50.917Z,26.87
2017-06-27T06:33:31.477Z,26.92
2017-06-27T06:34:11.990Z,26.84
2017-06-27T06:34:52.482Z,26.84
2017-06-27T06:35:32.966Z,26.81
2017-06-27T06:36:13.516Z,26.85
2017-06-27T06:36:54.056Z,26.85
2017-06-27T06:37:34.525Z,26.85
2017-06-27T06:38:14.995Z,26.89
2017-06-27T06:38:55.562Z,26.97
2017-06-27T06:39:36.130Z,26.84
2017-06-27T06:40:16.745Z,26.94
2017-06-27T06:40:57.229Z,26.94
2017-06-27T06:41:37.725Z,26.8
2017-06-27T06:42:18.210Z,26.54
2017-06-27T06:42:58.674Z,26.55
2017-06-27T06:43:39.178Z,26.52
2017-06-27T06:44:19.682Z,26.4
2017-06-27T06:45:00.173Z,26.55
2017-06-27T06:45:40.701Z,26.51
2017-06-27T06:46:21.223Z,26.6
2017-06-27T06:47:01.721Z,26.63
2017-06-27T06:47:42.214Z,26.69
2017-06-27T06:48:22.756Z,26.65
2017-06-27T06:49:03.269Z,26.73
2017-06-27T06:49:43.770Z,26.84
2017-06-27T06:50:24.274Z,26.87
2017-06-27T06:51:04.801Z,26.82
2017-06-27T06:51:45.337Z,26.65
2017-06-27T06:52:25.842Z,26.6
2017-06-27T06:53:06.466Z,26.62
2017-06-27T06:53:46.825Z,26.69
2017-06-27T06:54:27.334Z,26.54
2017-06-27T06:55:07.871Z,26.51
2017-06-27T06:55:48.347Z,26.37
2017-06-27T06:56:28.836Z,26.43
2017-06-27T06:57:09.366Z,26.44
2017-06-27T06:57:49.870Z,26.57
2017-06-27T06:58:30.383Z,26.55
2017-06-27T06:59:10.839Z,26.57
2017-06-27T06:59:51.369Z,26.58
2017-06-27T07:00:31.867Z,26.72
2017-06-27T07:01:12.377Z,26.72
2017-06-27T07:01:52.884Z,26.73
2017-06-27T07:02:33.428Z,26.81
2017-06-27T07:03:13.959Z,26.88
2017-06-27T07:03:54.490Z,26.91
2017-06-27T07:04:34.985Z,27.04
2017-06-27T07:05:15.644Z,26.92
2017-06-27T07:05:56.122Z,26.89
2017-06-27T07:06:36.637Z,27.06
2017-06-27T07:07:17.117Z,27.14
2017-06-27T07:07:57.647Z,27.14
2017-06-27T07:08:38.182Z,27.27
2017-06-27T07:09:18.945Z,27.34
2017-06-27T07:09:59.450Z,27.32
2017-06-27T07:10:39.995Z,27.43
2017-06-27T07:11:20.462Z,27.49
2017-06-27T07:12:00.959Z,27.44
2017-06-27T07:12:41.473Z,27.46
2017-06-27T07:13:21.995Z,27.54
2017-06-27T07:14:02.499Z,27.62
2017-06-27T07:14:42.974Z,27.65
2017-06-27T07:15:23.529Z,27.75
2017-06-27T07:16:04.020Z,27.84
2017-06-27T07:16:44.552Z,27.75
2017-06-27T07:17:25.016Z,27.81
2017-06-27T07:18:05.586Z,27.81
2017-06-27T07:18:46.027Z,27.82
2017-06-27T07:19:26.497Z,27.99
2017-06-27T07:20:06.987Z,28.12
2017-06-27T07:20:47.506Z,28.19
2017-06-27T07:21:28.025Z,28.27
2017-06-27T07:22:08.535Z,28.34
2017-06-27T07:22:49.034Z,28.27
2017-06-27T07:23:29.537Z,28.29
2017-06-27T07:24:10.062Z,28.3
2017-06-27T07:24:50.542Z,28.36
2017-06-27T07:25:31.153Z,28.41
2017-06-27T07:26:11.676Z,28.4
2017-06-27T07:26:52.182Z,28.41
2017-06-27T07:27:32.692Z,28.51
2017-06-27T07:28:13.189Z,28.54
2017-06-27T07:28:53.702Z,28.58
2017-06-27T07:29:34.223Z,28.71
2017-06-27T07:30:14.690Z,28.88
2017-06-27T07:30:55.198Z,28.89
2017-06-27T07:31:35.714Z,28.9
2017-06-27T07:32:16.217Z,28.88
2017-06-27T07:32:56.739Z,28.83
2017-06-27T07:33:37.260Z,28.73
2017-06-27T07:34:17.790Z,28.83
2017-06-27T07:34:58.295Z,28.85
2017-06-27T07:35:38.849Z,28.71
2017-06-27T07:36:19.302Z,28.86
2017-06-27T07:36:59.835Z,28.8
2017-06-27T07:37:40.289Z,28.78
2017-06-27T07:38:20.834Z,28.81
2017-06-27T07:39:01.315Z,29.02
2017-06-27T07:39:41.829Z,28.98
2017-06-27T07:40:22.322Z,29.15
2017-06-27T07:41:02.857Z,29.14
2017-06-27T07:41:43.315Z,29.31
2017-06-27T07:42:23.837Z,29.39
2017-06-27T07:44:37.184Z,29.3
2017-06-27T07:45:17.718Z,29.16
2017-06-27T07:45:58.234Z,29.24
2017-06-27T07:47:46.213Z,29.36
2017-06-27T07:48:26.726Z,29.41
2017-06-27T07:49:07.236Z,29.37
2017-06-27T07:49:47.725Z,29.28
2017-06-27T07:50:28.272Z,29.3
2017-06-27T07:51:08.878Z,29.14
2017-06-27T07:51:49.392Z,29.21
2017-06-27T07:52:29.904Z,29.24
2017-06-27T07:53:10.485Z,29.06
2017-06-27T07:53:50.958Z,29.04
2017-06-27T07:54:31.463Z,29.09
2017-06-27T07:55:11.968Z,29.11
2017-06-27T07:55:52.505Z,29.14
2017-06-27T07:56:32.992Z,29.24
2017-06-27T07:57:13.508Z,29.18
2017-06-27T07:57:53.981Z,29.21
2017-06-27T07:58:34.501Z,29.21
2017-06-27T07:59:14.956Z,29.28
2017-06-27T07:59:55.511Z,29.31
2017-06-27T08:00:35.957Z,29.16
2017-06-27T08:01:16.542Z,29.02
2017-06-27T08:01:57.025Z,29
2017-06-27T08:02:37.543Z,29.19
2017-06-27T08:03:18.030Z,29.12
2017-06-27T08:03:58.537Z,29.26
2017-06-27T08:04:39.074Z,29.36
2017-06-27T08:05:19.648Z,29.37
2017-06-27T08:06:00.142Z,29.39
2017-06-27T08:06:40.618Z,29.27
2017-06-27T08:07:21.160Z,29.34
2017-06-27T08:08:01.665Z,29.42
2017-06-27T08:08:42.121Z,29.37
2017-06-27T08:09:22.650Z,29.39
2017-06-27T08:10:03.147Z,29.55
2017-06-27T08:10:43.677Z,29.53
2017-06-27T08:11:24.202Z,29.58
2017-06-27T08:12:04.841Z,29.61
2017-06-27T08:12:45.369Z,29.71
2017-06-27T08:13:25.881Z,29.71
2017-06-27T08:14:06.408Z,29.83
2017-06-27T08:14:46.883Z,29.89
2017-06-27T08:15:27.419Z,29.85
2017-06-27T08:16:08.050Z,29.87
2017-06-27T08:16:48.580Z,30.05
2017-06-27T08:17:29.043Z,30.17
2017-06-27T08:18:09.557Z,30.32
2017-06-27T08:18:50.080Z,30.29
2017-06-27T08:19:30.599Z,30.22
2017-06-27T08:20:11.118Z,30.31
2017-06-27T08:20:51.643Z,30.29
2017-06-27T08:21:32.170Z,30.29
2017-06-27T08:22:12.703Z,30.31
2017-06-27T08:22:53.219Z,30.34
2017-06-27T08:23:33.734Z,30.62
2017-06-27T08:24:14.250Z,30.64
2017-06-27T08:24:54.774Z,30.69
2017-06-27T08:25:35.281Z,30.65
2017-06-27T08:26:15.802Z,30.67
2017-06-27T08:26:56.345Z,30.73
2017-06-27T08:27:36.869Z,30.77
2017-06-27T08:28:17.380Z,30.7
2017-06-27T08:28:57.900Z,30.73
2017-06-27T08:29:38.417Z,30.51
2017-06-27T08:30:18.932Z,30.54
2017-06-27T08:30:59.469Z,30.6
2017-06-27T08:31:39.944Z,30.65
2017-06-27T08:33:17.330Z,30.53
2017-06-27T08:33:57.841Z,30.53
2017-06-27T08:34:38.373Z,30.49
2017-06-27T08:35:18.898Z,30.42
2017-06-27T08:35:59.410Z,30.34
2017-06-27T08:36:39.910Z,30.29
2017-06-27T08:37:20.420Z,30.24
2017-06-27T08:38:00.932Z,30.1
2017-06-27T08:38:41.460Z,30.17
2017-06-27T08:39:21.975Z,30.08
2017-06-27T08:40:02.459Z,30.13
2017-06-27T08:40:42.955Z,30.2
2017-06-27T08:41:23.497Z,29.97
2017-06-27T08:42:03.992Z,29.95
2017-06-27T08:42:44.540Z,30.13
2017-06-27T08:44:57.483Z,30.31
2017-06-27T08:45:38.009Z,30.29
2017-06-27T08:47:52.855Z,30.1
2017-06-27T08:48:33.367Z,30.22
2017-06-27T08:49:13.898Z,30.24
2017-06-27T08:49:54.439Z,30.23
2017-06-27T08:50:34.964Z,30.24
2017-06-27T08:51:15.481Z,30.29
2017-06-27T08:51:55.983Z,30.31
2017-06-27T08:52:36.485Z,30.29
2017-06-27T08:53:16.993Z,30.35
2017-06-27T08:53:57.522Z,30.46